Time;durP1;ratioP1;P1;durP2;ratioP2;P2;SDS_P1;SDS_P2;PMS_P1;PMS_P2;Temp;Humidity;BMP_temperature;BMP_pressure;BME280_temperature;BME280_humidity;BME280_pressure;Samples;Min_cycle;Max_cycle;Signal;HPM_P1;HPM_P2
2022/12/21 00:02:03;;;;;;;26.10;14.45;;;;;;;4.15;85.86;98081.84;4987013;28;20485;-88
2022/12/21 00:04:29;;;;;;;28.70;15.75;;;;;;;4.10;86.34;98079.72;5001964;28;20128;-87
2022/12/21 00:06:56;;;;;;;25.40;14.20;;;;;;;4.10;86.44;98081.50;5005116;28;20044;-87
2022/12/21 00:09:23;;;;;;;27.35;14.35;;;;;;;4.01;86.09;98039.94;4987918;28;20033;-87
2022/12/21 00:11:49;;;;;;;24.55;13.65;;;;;;;4.09;86.23;98043.53;4976563;28;20034;-87
2022/12/21 00:14:15;;;;;;;23.88;13.80;;;;;;;4.02;86.31;98046.78;4997268;28;20097;-87
2022/12/21 00:16:42;;;;;;;26.63;14.40;;;;;;;4.19;86.56;98052.78;4993087;28;20042;-87
2022/12/21 00:19:13;;;;;;;26.58;14.55;;;;;;;4.05;86.54;98045.63;5001157;28;20054;-87
2022/12/21 00:21:39;;;;;;;24.05;13.65;;;;;;;4.19;86.40;98057.16;5000049;28;20064;-87
2022/12/21 00:24:05;;;;;;;24.63;13.85;;;;;;;4.08;85.87;98034.09;4966368;28;20097;-87
2022/12/21 00:26:36;;;;;;;26.13;14.32;;;;;;;4.20;85.93;98048.44;4993319;28;20085;-87
2022/12/21 00:29:04;;;;;;;23.90;13.27;;;;;;;4.30;85.30;98054.25;5003869;28;20153;-87
2022/12/21 00:31:36;;;;;;;28.10;14.75;;;;;;;4.16;85.72;98044.53;4980249;28;20045;-87
2022/12/21 00:34:03;;;;;;;23.88;13.27;;;;;;;4.13;85.98;98043.03;5001397;28;20038;-88
2022/12/21 00:36:30;;;;;;;23.80;13.02;;;;;;;4.05;86.22;98034.44;5010805;28;20050;-88
2022/12/21 00:38:57;;;;;;;27.95;14.27;;;;;;;4.12;86.21;98030.22;4999674;28;20073;-88
2022/12/21 00:41:26;;;;;;;24.40;13.43;;;;;;;4.25;86.02;98027.97;5001033;28;20038;-88
2022/12/21 00:43:54;;;;;;;26.15;14.23;;;;;;;4.17;86.29;98044.34;4975086;28;20510;-87
2022/12/21 00:46:21;;;;;;;26.77;14.55;;;;;;;4.12;86.49;98025.03;4995472;28;20493;-87
2022/12/21 00:48:47;;;;;;;27.98;15.40;;;;;;;4.16;86.14;98015.97;4997744;28;20038;-86
2022/12/21 00:51:20;;;;;;;28.40;13.98;;;;;;;4.16;85.92;98015.97;4990898;28;20031;-87
2022/12/21 00:53:46;;;;;;;24.00;14.10;;;;;;;4.29;86.14;98026.69;4982916;28;20084;-87
2022/12/21 00:56:12;;;;;;;29.70;14.70;;;;;;;4.27;86.26;98028.63;5006183;28;20041;-87
2022/12/21 00:58:38;;;;;;;24.95;13.65;;;;;;;4.14;86.23;98002.31;4998994;28;20117;-87
2022/12/21 01:01:07;;;;;;;27.85;14.30;;;;;;;4.11;86.77;98005.25;4990226;28;20042;-88
2022/12/21 01:03:33;;;;;;;25.45;14.18;;;;;;;4.10;87.04;98021.81;5001309;28;20044;-87
2022/12/21 01:05:59;;;;;;;28.08;14.70;;;;;;;4.03;87.07;98035.41;5008864;28;20482;-87
2022/12/21 01:08:26;;;;;;;27.27;14.25;;;;;;;4.12;87.28;98025.03;4994454;28;20041;-87
2022/12/21 01:11:03;;;;;;;26.48;14.48;;;;;;;4.22;86.83;98033.50;4990996;28;20489;-88
2022/12/21 01:13:32;;;;;;;26.60;13.88;;;;;;;4.27;86.62;98029.44;4979913;28;20081;-87
2022/12/21 01:15:57;;;;;;;25.00;13.57;;;;;;;4.11;86.74;98018.22;4968587;28;20104;-87
2022/12/21 01:18:24;;;;;;;29.48;14.07;;;;;;;4.04;86.69;97992.09;5001482;28;20270;-87
2022/12/21 01:20:56;;;;;;;28.00;14.13;;;;;;;4.27;86.81;98021.66;4998920;28;20042;-88
2022/12/21 01:23:23;;;;;;;25.88;14.13;;;;;;;4.22;87.53;98025.72;4995643;28;20029;-87
2022/12/21 01:25:50;;;;;;;27.95;14.82;;;;;;;4.25;87.69;98036.56;4992584;28;20053;-89
2022/12/21 01:28:16;;;;;;;27.85;13.98;;;;;;;4.19;87.40;98020.81;4999584;28;20438;-86
2022/12/21 01:30:43;;;;;;;28.20;14.45;;;;;;;4.16;87.00;98015.97;5001413;28;20041;-87
2022/12/21 01:33:19;;;;;;;25.48;14.07;;;;;;;4.30;87.09;98038.69;4996026;28;20050;-87
2022/12/21 01:35:46;;;;;;;23.67;14.32;;;;;;;4.32;86.94;98031.56;4998443;28;20030;-87
2022/12/21 01:38:13;;;;;;;26.75;14.38;;;;;;;4.31;86.48;98035.13;4994398;28;20049;-87
2022/12/21 01:40:39;;;;;;;28.48;14.60;;;;;;;4.21;86.71;98029.28;5005661;28;20029;-88
2022/12/21 01:43:42;;;;;;;27.52;13.90;;;;;;;4.24;87.16;98053.13;5003350;28;20042;-87
2022/12/21 01:46:31;;;;;;;27.15;13.93;;;;;;;4.11;88.11;98044.19;4997890;28;20049;-87
2022/12/21 01:49:03;;;;;;;25.48;13.98;;;;;;;4.17;88.31;98043.53;4993853;28;20046;-87
2022/12/21 01:51:32;;;;;;;24.90;14.25;;;;;;;4.10;88.04;98027.00;5002759;28;20100;-87
2022/12/21 01:54:13;;;;;;;25.52;13.65;;;;;;;4.05;88.15;98011.09;4999082;28;20134;-87
2022/12/21 01:56:45;;;;;;;25.15;13.82;;;;;;;4.02;87.93;98010.44;4997658;28;20026;-87
2022/12/21 01:59:28;;;;;;;32.13;15.27;;;;;;;4.17;88.60;98027.97;4987525;28;20057;-88
2022/12/21 02:01:55;;;;;;;26.27;12.82;;;;;;;3.95;89.30;98019.00;4985313;28;20035;-87
2022/12/21 02:04:21;;;;;;;27.65;14.05;;;;;;;3.91;89.62;98002.97;5003615;28;20553;-88
2022/12/21 02:06:58;;;;;;;25.73;13.60;;;;;;;4.07;89.53;98024.69;4999026;28;20478;-87
2022/12/21 02:09:30;;;;;;;27.23;14.32;;;;;;;3.91;89.44;98010.75;4986153;28;20522;-87
2022/12/21 02:11:59;;;;;;;31.73;15.02;;;;;;;4.02;89.21;98026.00;4982746;28;20026;-88
2022/12/21 02:14:26;;;;;;;22.52;13.15;;;;;;;4.06;90.11;98033.47;4996521;28;20038;-87
2022/12/21 02:17:42;;;;;;;28.10;14.68;;;;;;;3.96;90.12;98026.66;4996918;28;20039;-88
2022/12/21 02:20:58;;;;;;;27.27;13.88;;;;;;;3.72;90.61;97990.28;4914393;29;20373;-87
2022/12/21 02:23:49;;;;;;;28.02;13.38;;;;;;;3.87;91.21;98022.41;4996299;28;20046;-87
2022/12/21 02:26:39;;;;;;;25.25;13.65;;;;;;;3.79;91.01;97991.25;4971034;28;20042;-88
2022/12/21 02:29:38;;;;;;;24.13;13.38;;;;;;;3.92;91.11;98016.75;4983167;28;20355;-88
2022/12/21 02:32:25;;;;;;;25.10;13.57;;;;;;;3.93;91.40;98011.38;4994565;28;20034;-88
2022/12/21 02:35:41;;;;;;;28.70;14.18;;;;;;;3.76;91.97;97999.34;4984432;28;20042;-87
2022/12/21 02:38:26;;;;;;;34.22;13.90;;;;;;;3.81;91.98;98004.88;4992817;28;20454;-86
2022/12/21 02:41:07;;;;;;;31.33;14.73;;;;;;;3.90;92.12;98014.31;4996030;28;20617;-87
2022/12/21 02:44:14;;;;;;;26.63;13.38;;;;;;;3.69;92.05;97987.97;4998511;28;20053;-87
2022/12/21 02:47:10;;;;;;;30.63;14.30;;;;;;;3.90;91.67;98000.50;4991084;28;20038;-88
2022/12/21 02:49:58;;;;;;;28.65;14.05;;;;;;;3.88;91.97;97998.06;4999762;28;20555;-87
2022/12/21 02:52:55;;;;;;;29.67;14.40;;;;;;;3.85;91.85;98003.59;5002426;28;20092;-89
2022/12/21 02:55:21;;;;;;;27.20;14.18;;;;;;;3.79;91.90;97991.25;4992277;28;20533;-88
2022/12/21 02:57:47;;;;;;;32.08;14.93;;;;;;;3.72;92.50;97987.69;4998255;28;20061;-87
2022/12/21 03:00:18;;;;;;;26.05;14.07;;;;;;;3.72;93.14;97985.09;4993143;28;20034;-87
2022/12/21 03:06:28;;;;;;;25.17;13.45;;;;;;;3.84;92.96;97975.19;5002822;28;20039;-88
2022/12/21 03:09:42;;;;;;;26.75;13.48;;;;;;;3.85;93.29;97985.44;4984192;28;20034;-88
2022/12/21 03:12:44;;;;;;;23.70;13.45;;;;;;;3.82;93.49;97977.94;5000240;28;20436;-87
2022/12/21 03:15:47;;;;;;;23.48;13.25;;;;;;;3.72;94.04;97972.94;5005176;28;20577;-87
2022/12/21 03:18:24;;;;;;;26.65;13.75;;;;;;;3.83;94.40;97970.97;4985039;28;20034;-87
2022/12/21 03:21:05;;;;;;;26.67;14.57;;;;;;;3.91;94.08;97963.22;5010469;28;20038;-88
2022/12/21 03:23:37;;;;;;;24.50;13.50;;;;;;;3.93;94.00;97964.69;4993688;28;20053;-87
2022/12/21 03:26:21;;;;;;;24.65;13.02;;;;;;;3.88;94.41;97971.31;4990561;28;20429;-88
2022/12/21 03:28:52;;;;;;;28.08;14.35;;;;;;;3.94;94.32;97955.91;4993632;28;20038;-88
2022/12/21 03:31:25;;;;;;;26.40;14.13;;;;;;;3.82;94.55;97952.00;5008389;28;20034;-87
2022/12/21 03:34:02;;;;;;;24.17;14.02;;;;;;;3.95;94.18;97952.34;4987308;28;20045;-88
2022/12/21 03:36:45;;;;;;;25.65;14.20;;;;;;;3.94;94.14;97955.91;4995334;28;20042;-88
2022/12/21 03:39:17;;;;;;;25.08;13.73;;;;;;;4.09;94.01;97958.69;5005353;28;20045;-88
2022/12/21 03:41:53;;;;;;;31.77;13.75;;;;;;;4.19;93.74;97963.72;5002770;28;20054;-87
2022/12/21 03:44:26;;;;;;;25.33;13.88;;;;;;;4.11;93.80;97951.56;4995764;28;20117;-88
2022/12/21 03:47:00;;;;;;;23.50;12.45;;;;;;;4.08;93.83;97945.88;4990500;28;20030;-89
2022/12/21 03:49:35;;;;;;;28.83;13.43;;;;;;;4.15;93.94;97949.47;5004045;28;20042;-88
2022/12/21 03:52:16;;;;;;;24.42;12.63;;;;;;;4.14;93.66;97940.88;4992666;28;20042;-88
2022/12/21 03:54:59;;;;;;;25.93;13.83;;;;;;;4.24;94.24;97951.06;4987117;28;20068;-88
2022/12/21 03:57:26;;;;;;;27.27;14.43;;;;;;;4.26;93.87;97936.16;5003186;28;20034;-89
2022/12/21 03:59:58;;;;;;;27.05;13.63;;;;;;;4.38;93.33;97953.03;4985799;28;20090;-89
2022/12/21 04:02:40;;;;;;;25.73;13.63;;;;;;;4.44;93.52;97952.38;4986491;28;20417;-88
2022/12/21 04:05:22;;;;;;;25.25;13.82;;;;;;;4.50;93.34;97945.69;4991797;28;20062;-89
2022/12/21 04:07:50;;;;;;;24.30;12.43;;;;;;;4.34;93.03;97920.56;4993352;28;20026;-88
2022/12/21 04:10:20;;;;;;;21.60;12.93;;;;;;;4.32;93.47;97922.53;4979433;28;20041;-88
2022/12/21 04:12:46;;;;;;;26.55;14.10;;;;;;;4.34;93.92;97915.38;5003281;28;20084;-89
2022/12/21 04:15:23;;;;;;;23.58;13.05;;;;;;;4.51;93.70;97942.94;5010493;28;20030;-88
2022/12/21 04:17:51;;;;;;;24.92;12.65;;;;;;;4.50;93.73;97938.72;5009603;28;20057;-88
2022/12/21 04:20:24;;;;;;;24.73;13.02;;;;;;;4.42;94.21;97923.13;4981934;28;20080;-88
2022/12/21 04:28:28;;;;;;;24.42;11.90;;;;;;;4.43;94.99;97944.72;4981595;28;20033;-88
2022/12/21 04:30:56;;;;;;;22.00;12.23;;;;;;;4.50;95.01;97930.94;4983346;28;20119;-88
2022/12/21 04:33:24;;;;;;;21.75;12.18;;;;;;;4.63;94.46;97945.19;5006317;28;20034;-88
2022/12/21 04:38:39;;;;;;;25.40;13.27;;;;;;;4.68;94.39;97937.69;4993954;28;20057;-88
2022/12/21 04:41:05;;;;;;;24.17;12.07;;;;;;;4.51;94.19;97911.78;4993868;28;20035;-89
2022/12/21 04:43:35;;;;;;;23.13;12.75;;;;;;;4.60;94.44;97916.94;4988987;28;20347;-88
2022/12/21 04:46:04;;;;;;;23.98;12.88;;;;;;;4.60;93.93;97916.94;5009149;28;20073;-89
2022/12/21 04:48:30;;;;;;;26.58;12.93;;;;;;;4.82;93.97;97942.22;5001843;28;20039;-88
2022/12/21 04:51:01;;;;;;;19.90;12.27;;;;;;;4.65;93.72;97912.06;4975925;28;20034;-89
2022/12/21 04:53:34;;;;;;;23.23;12.50;;;;;;;4.78;94.00;97925.34;4990981;28;20563;-89
2022/12/21 04:55:59;;;;;;;20.75;11.85;;;;;;;4.69;94.11;97908.97;5000521;28;20038;-89
2022/12/21 04:58:25;;;;;;;21.20;12.15;;;;;;;4.81;93.83;97917.22;4974286;28;20089;-89
2022/12/21 05:00:51;;;;;;;18.80;11.15;;;;;;;4.75;94.39;97908.31;4991080;28;20045;-89
2022/12/21 05:03:19;;;;;;;25.33;13.45;;;;;;;4.64;94.84;97905.25;4974030;28;20532;-89
2022/12/21 05:05:45;;;;;;;21.70;12.77;;;;;;;4.77;94.49;97915.91;4996755;28;20042;-89
2022/12/21 05:08:12;;;;;;;22.55;12.38;;;;;;;4.89;94.51;97914.59;4985589;28;20042;-89
2022/12/21 05:10:38;;;;;;;23.90;12.65;;;;;;;4.84;94.54;97909.06;4986737;28;20022;-89
2022/12/21 05:13:03;;;;;;;25.05;13.10;;;;;;;4.74;94.85;97905.88;4977280;28;20093;-89
2022/12/21 05:15:30;;;;;;;21.58;11.40;;;;;;;4.61;95.01;97895.97;4998557;28;20033;-88
2022/12/21 05:17:57;;;;;;;24.45;13.00;;;;;;;4.80;95.36;97915.59;4986225;28;20045;-89
2022/12/21 05:20:23;;;;;;;22.98;12.27;;;;;;;4.76;94.91;97903.91;4981565;28;20093;-89
2022/12/21 05:22:48;;;;;;;23.92;12.65;;;;;;;4.81;94.94;97912.84;4985844;28;20490;-89
2022/12/21 05:25:14;;;;;;;23.33;12.00;;;;;;;4.79;94.98;97896.56;4973853;28;20037;-89
2022/12/21 05:27:40;;;;;;;23.05;12.07;;;;;;;4.93;95.03;97910.69;4983557;28;20045;-89
2022/12/21 05:30:07;;;;;;;22.15;12.40;;;;;;;4.93;94.35;97905.47;4953915;28;20030;-89
2022/12/21 05:32:32;;;;;;;19.17;12.27;;;;;;;4.84;95.07;97906.47;4960808;28;20062;-89
2022/12/21 05:34:58;;;;;;;25.60;13.82;;;;;;;4.88;94.78;97896.56;5001034;28;20121;-90
2022/12/21 05:37:23;;;;;;;20.92;12.20;;;;;;;4.92;93.91;97898.66;5004061;28;20053;-89
2022/12/21 05:39:49;;;;;;;20.63;11.93;;;;;;;4.84;93.93;97885.69;5010760;28;20053;-89
2022/12/21 05:42:14;;;;;;;20.40;12.20;;;;;;;4.96;93.70;97901.72;4989866;28;20087;-89
2022/12/21 05:44:40;;;;;;;20.13;12.05;;;;;;;5.03;93.98;97911.28;4973700;28;20474;-90
2022/12/21 05:47:05;;;;;;;24.35;12.40;;;;;;;5.00;94.29;97901.22;4991441;28;20045;-90
2022/12/21 05:49:31;;;;;;;19.70;11.57;;;;;;;5.02;94.25;97891.47;4969900;28;20039;-90
2022/12/21 05:51:56;;;;;;;22.77;12.32;;;;;;;5.07;94.18;97891.75;4986711;28;20037;-89
2022/12/21 05:54:22;;;;;;;20.58;11.35;;;;;;;5.14;93.91;97901.47;4980497;28;20026;-89
2022/12/21 05:56:48;;;;;;;21.45;12.20;;;;;;;5.16;93.92;97904.72;4976816;28;20034;-89
2022/12/21 05:59:13;;;;;;;21.08;12.23;;;;;;;5.23;94.23;97897.88;4968679;28;20027;-90
2022/12/21 06:01:39;;;;;;;20.92;11.60;;;;;;;5.09;94.74;97895.00;4990469;28;20398;-89
2022/12/21 06:04:05;;;;;;;23.35;12.65;;;;;;;5.29;94.82;97910.19;4985165;28;20125;-89
2022/12/21 06:06:30;;;;;;;20.85;11.93;;;;;;;5.28;94.49;97898.19;5001749;28;20031;-89
2022/12/21 06:08:56;;;;;;;21.42;11.95;;;;;;;5.32;95.27;97912.44;4999222;28;20042;-89
2022/12/21 06:11:24;;;;;;;20.20;11.90;;;;;;;5.34;95.29;97918.31;4969620;28;20042;-90
2022/12/21 06:13:51;;;;;;;20.52;11.35;;;;;;;5.32;95.71;97909.84;4977059;28;20113;-89
2022/12/21 06:16:26;;;;;;;22.13;12.00;;;;;;;5.27;95.63;97912.13;4968146;28;20034;-90
2022/12/21 06:18:53;;;;;;;20.58;11.38;;;;;;;5.36;96.50;97921.53;4974051;28;20038;-89
2022/12/21 06:21:20;;;;;;;19.52;11.43;;;;;;;5.17;96.21;97885.56;4989093;28;20049;-89
2022/12/21 06:23:47;;;;;;;18.60;11.18;;;;;;;5.29;96.65;97911.00;4998294;28;20038;-89
2022/12/21 06:26:17;;;;;;;20.00;10.75;;;;;;;5.36;96.88;97921.53;4975785;28;20047;-89
2022/12/21 06:28:53;;;;;;;19.17;11.40;;;;;;;5.42;96.69;97913.06;4967746;28;20551;-88
2022/12/21 06:31:21;;;;;;;21.10;10.93;;;;;;;5.44;96.62;97921.47;5001624;28;20030;-89
2022/12/21 06:33:46;;;;;;;22.80;12.23;;;;;;;5.44;96.41;97905.88;5004911;28;20038;-89
2022/12/21 06:36:13;;;;;;;17.98;11.00;;;;;;;5.53;96.04;97923.06;4989943;28;20065;-89
2022/12/21 06:38:39;;;;;;;18.65;11.30;;;;;;;5.42;96.39;97910.44;4986224;28;20055;-88
2022/12/21 06:41:10;;;;;;;19.42;11.55;;;;;;;5.47;96.32;97900.34;4993709;28;20054;-89
2022/12/21 06:43:38;;;;;;;19.75;11.43;;;;;;;5.58;96.22;97917.34;4984211;28;20078;-89
2022/12/21 06:46:10;;;;;;;22.35;12.00;;;;;;;5.60;96.43;97913.59;4980454;28;20046;-89
2022/12/21 06:48:37;;;;;;;19.67;11.48;;;;;;;5.53;96.11;97906.66;4982772;28;20037;-89
2022/12/21 06:51:08;;;;;;;20.23;11.55;;;;;;;5.49;96.86;97900.16;4989657;28;20030;-89
2022/12/21 06:53:43;;;;;;;18.02;10.93;;;;;;;5.47;96.26;97891.72;4977440;28;20030;-89
2022/12/21 06:56:14;;;;;;;19.08;11.82;;;;;;;5.61;95.97;97904.81;4993178;28;20045;-89
2022/12/21 06:58:40;;;;;;;;;;;;;;;5.73;95.83;97917.41;4984366;28;20078;-88
2022/12/21 07:01:12;;;;;;;21.05;10.98;;;;;;;5.70;95.97;97915.13;4992831;28;19962;-90
2022/12/21 07:03:41;;;;;;;18.25;11.20;;;;;;;5.79;95.43;97911.50;4995071;28;20034;-89
2022/12/21 07:06:08;;;;;;;19.73;10.93;;;;;;;5.68;95.87;97904.09;4995071;28;20063;-89
2022/12/21 07:08:34;;;;;;;16.65;10.40;;;;;;;5.75;95.71;97916.25;4998075;28;20042;-90
2022/12/21 07:11:09;;;;;;;21.58;11.60;;;;;;;5.84;95.88;97915.22;4992813;28;20029;-88
2022/12/21 07:13:37;;;;;;;21.58;11.10;;;;;;;5.75;95.99;97905.03;4995081;28;20125;-90
2022/12/21 07:16:04;;;;;;;17.67;11.23;;;;;;;5.83;95.85;97933.63;5008657;28;20441;-89
2022/12/21 07:18:30;;;;;;;19.17;11.95;;;;;;;5.82;97.01;97938.03;4992019;28;20026;-89
2022/12/21 07:21:02;;;;;;;16.85;11.45;;;;;;;5.79;96.91;97927.13;4985100;28;20034;-90
2022/12/21 07:23:29;;;;;;;17.67;10.63;;;;;;;5.75;97.22;97925.84;4993275;28;20049;-89
2022/12/21 07:25:56;;;;;;;19.20;10.77;;;;;;;5.71;97.08;97916.78;4974457;28;20030;-89
2022/12/21 07:28:23;;;;;;;18.25;11.25;;;;;;;5.87;97.44;97934.88;4969992;28;20077;-89
2022/12/21 07:30:49;;;;;;;16.80;11.25;;;;;;;5.85;97.29;97940.25;4992630;28;20045;-89
2022/12/21 07:33:15;;;;;;;20.10;11.15;;;;;;;5.74;97.37;97932.03;4986766;28;20026;-89
2022/12/21 07:35:41;;;;;;;19.40;11.95;;;;;;;5.78;97.67;97926.31;4991470;28;20038;-89
2022/12/21 07:38:07;;;;;;;17.30;10.52;;;;;;;5.76;97.59;97919.69;4985524;28;20049;-90
2022/12/21 07:40:33;;;;;;;19.30;11.18;;;;;;;5.81;97.98;97933.78;4992356;28;20038;-88
2022/12/21 07:42:58;;;;;;;18.52;11.82;;;;;;;5.94;97.44;97935.00;4963532;28;20070;-90
2022/12/21 07:45:24;;;;;;;16.98;10.40;;;;;;;6.03;97.05;97958.22;4970946;28;20379;-88
2022/12/21 07:47:49;;;;;;;18.67;11.55;;;;;;;5.96;97.14;97943.47;4960710;28;20130;-90
2022/12/21 07:50:15;;;;;;;19.90;11.45;;;;;;;6.00;97.37;97948.19;4967450;28;20393;-88
2022/12/21 07:52:44;;;;;;;18.98;10.90;;;;;;;5.91;97.35;97930.97;4959876;28;20044;-89
2022/12/21 07:55:09;;;;;;;18.55;10.68;;;;;;;5.92;97.88;97927.38;5007176;28;20034;-91
2022/12/21 07:57:35;;;;;;;18.13;11.02;;;;;;;6.00;97.89;97931.72;4991945;28;20038;-88
2022/12/21 08:00:00;;;;;;;18.80;11.52;;;;;;;6.09;97.40;97938.50;5002182;28;20042;-88
2022/12/21 08:02:26;;;;;;;18.38;10.70;;;;;;;6.21;96.53;97949.31;4993749;28;20486;-89
2022/12/21 08:04:51;;;;;;;17.55;10.98;;;;;;;6.22;96.86;97953.53;4997507;28;20045;-88
2022/12/21 08:07:17;;;;;;;17.25;10.65;;;;;;;6.01;97.10;97926.34;5005602;28;20132;-88
2022/12/21 08:09:42;;;;;;;17.33;10.73;;;;;;;6.07;97.74;97949.09;5000482;28;20121;-88
2022/12/21 08:12:11;;;;;;;17.33;11.18;;;;;;;6.16;97.44;97940.22;4975132;28;20026;-88
2022/12/21 08:14:36;;;;;;;18.52;10.77;;;;;;;6.22;96.91;97954.34;5006152;28;20112;-88
2022/12/21 08:17:02;;;;;;;15.30;10.35;;;;;;;6.11;96.42;97926.91;4999442;28;20038;-88
2022/12/21 08:19:28;;;;;;;18.63;10.00;;;;;;;6.13;97.00;97937.97;4974632;28;20049;-88
2022/12/21 08:21:53;;;;;;;19.17;10.75;;;;;;;6.19;96.95;97939.06;4976505;28;20038;-88
2022/12/21 08:24:19;;;;;;;18.75;10.57;;;;;;;6.30;96.34;97940.47;4998622;28;20042;-88
2022/12/21 08:26:44;;;;;;;17.35;10.65;;;;;;;6.29;96.44;97934.41;4997514;28;20096;-88
2022/12/21 08:29:14;;;;;;;15.80;10.30;;;;;;;6.43;95.65;97961.50;4962198;28;20043;-88
2022/12/21 08:31:40;;;;;;;18.50;10.70;;;;;;;6.39;95.64;97955.81;5008212;28;20584;-88
2022/12/21 08:34:08;;;;;;;18.15;10.93;;;;;;;6.41;95.42;97947.81;4960726;28;20119;-89
2022/12/21 08:36:34;;;;;;;17.73;10.57;;;;;;;6.44;95.28;97952.69;4988928;28;20070;-89
2022/12/21 08:39:00;;;;;;;22.05;11.07;;;;;;;6.43;96.26;97951.09;4974521;28;20125;-88
2022/12/21 08:41:25;;;;;;;17.55;10.43;;;;;;;6.46;96.36;97945.50;4993871;28;20121;-89
2022/12/21 08:43:51;;;;;;;17.52;11.07;;;;;;;6.52;96.33;97959.63;5004365;28;20074;-88
2022/12/21 08:46:17;;;;;;;16.48;10.90;;;;;;;6.44;96.33;97955.31;5011612;28;20042;-88
2022/12/21 08:48:42;;;;;;;17.98;10.73;;;;;;;6.35;96.91;97938.09;5005766;28;20452;-89
2022/12/21 08:51:09;;;;;;;20.02;10.82;;;;;;;6.38;96.71;97938.56;4991344;28;20508;-88
2022/12/21 08:53:36;;;;;;;16.65;10.65;;;;;;;6.47;96.77;97956.72;4995451;28;20396;-88
2022/12/21 08:56:04;;;;;;;20.90;11.07;;;;;;;6.48;97.15;97953.97;4975969;28;20616;-88
2022/12/21 08:58:30;;;;;;;16.77;10.98;;;;;;;6.54;97.25;97957.66;4991755;28;20112;-88
2022/12/21 09:00:55;;;;;;;18.45;10.75;;;;;;;6.59;97.43;97971.75;5005155;28;20113;-89
2022/12/21 09:03:23;;;;;;;19.27;11.68;;;;;;;6.58;96.68;97967.53;4994543;28;20077;-89
2022/12/21 09:05:57;;;;;;;18.10;11.45;;;;;;;6.63;96.63;97956.59;5010555;28;20478;-89
2022/12/21 09:08:24;;;;;;;15.75;10.98;;;;;;;6.69;96.10;97956.69;5002631;28;20129;-89
2022/12/21 09:10:59;;;;;;;16.50;11.43;;;;;;;6.66;96.20;97948.44;4994842;28;20113;-88
2022/12/21 09:13:24;;;;;;;17.30;11.32;;;;;;;6.72;96.00;97963.34;4976293;28;20090;-89
2022/12/21 09:15:50;;;;;;;20.60;11.52;;;;;;;6.74;96.18;97968.38;5006900;28;20064;-89
2022/12/21 09:18:15;;;;;;;20.33;11.05;;;;;;;6.69;96.11;97958.47;5011256;28;20042;-89
2022/12/21 09:20:41;;;;;;;17.58;11.10;;;;;;;6.76;96.00;97958.56;4994579;28;20048;-89
2022/12/21 09:23:06;;;;;;;17.67;11.15;;;;;;;6.79;96.05;97958.22;4974595;28;20038;-89
2022/12/21 09:25:32;;;;;;;17.70;10.93;;;;;;;6.86;95.63;97961.75;4989677;28;20053;-89
2022/12/21 09:28:01;;;;;;;20.13;11.10;;;;;;;6.83;95.83;97957.69;4994104;28;20569;-90
2022/12/21 09:30:29;;;;;;;19.30;10.85;;;;;;;6.90;95.59;97965.63;4993261;28;20030;-88
2022/12/21 09:32:55;;;;;;;18.08;11.02;;;;;;;6.79;95.67;97953.03;4994765;28;20044;-89
2022/12/21 09:35:20;;;;;;;17.77;10.98;;;;;;;6.89;95.38;97962.19;5012125;28;20038;-90
2022/12/21 09:37:46;;;;;;;17.48;10.88;;;;;;;6.80;95.50;97946.81;5007861;28;20535;-90
2022/12/21 09:40:15;;;;;;;16.58;10.65;;;;;;;7.01;95.08;97964.34;5005916;28;20030;-90
2022/12/21 09:43:02;;;;;;;18.05;10.90;;;;;;;7.00;95.27;97968.75;4998328;28;20515;-88
2022/12/21 09:46:04;;;;;;;17.52;11.10;;;;;;;7.05;95.20;97968.22;4999495;28;20037;-88
2022/12/21 09:49:01;;;;;;;16.67;11.13;;;;;;;7.01;95.20;97965.16;4966504;28;20039;-90
2022/12/21 09:51:32;;;;;;;17.17;11.18;;;;;;;7.04;95.53;97954.38;4969888;28;20023;-90
2022/12/21 09:54:15;;;;;;;17.55;11.45;;;;;;;7.06;95.33;97962.81;4950544;28;20045;-90
2022/12/21 09:56:50;;;;;;;17.70;11.35;;;;;;;7.07;94.93;97951.38;4984675;28;20109;-91
2022/12/21 09:59:20;;;;;;;17.48;11.57;;;;;;;6.97;94.50;97932.63;4994128;28;20577;-91
2022/12/21 10:01:57;;;;;;;17.58;10.93;;;;;;;7.20;94.59;97959.41;5010894;28;20045;-90
2022/12/21 10:04:50;;;;;;;16.15;10.77;;;;;;;7.22;94.29;97959.22;4986632;28;20113;-90
2022/12/21 10:07:38;;;;;;;17.08;10.52;;;;;;;7.25;94.11;97951.81;4988403;28;20291;-90
2022/12/21 10:10:39;;;;;;;15.82;9.98;;;;;;;7.28;94.21;97947.25;4984625;28;20061;-90
2022/12/21 10:13:19;;;;;;;17.17;10.20;;;;;;;7.29;93.72;97952.28;4983881;28;20030;-89
2022/12/21 10:16:18;;;;;;;17.92;10.63;;;;;;;7.25;93.50;97954.44;4992100;28;20835;-90
2022/12/21 10:19:59;;;;;;;17.73;11.13;;;;;;;7.24;94.21;97944.19;4993168;28;20070;-86
2022/12/21 10:22:31;;;;;;;19.02;11.23;;;;;;;7.16;94.35;97939.88;4879986;29;20119;-86
2022/12/21 10:25:12;;;;;;;19.17;10.68;;;;;;;7.08;95.07;97929.56;4914684;29;20036;-87
2022/12/21 10:28:07;;;;;;;16.65;10.63;;;;;;;7.17;95.28;97933.66;4989651;28;20042;-86
2022/12/21 10:30:36;;;;;;;20.17;11.85;;;;;;;7.16;94.68;97926.03;4990156;28;20035;-86
2022/12/21 10:33:02;;;;;;;19.13;11.13;;;;;;;7.17;94.35;97915.41;4996132;28;20038;-87
2022/12/21 10:35:37;;;;;;;19.45;12.90;;;;;;;7.27;94.82;97940.41;4991784;28;20046;-87
2022/12/21 10:38:14;;;;;;;17.00;10.45;;;;;;;7.18;94.99;97924.03;5009474;28;20046;-87
2022/12/21 10:40:47;;;;;;;16.85;10.77;;;;;;;7.27;94.92;97943.03;4999348;28;20449;-87
2022/12/21 10:43:13;;;;;;;15.80;10.50;;;;;;;7.10;95.45;97929.38;5001198;28;20034;-87
2022/12/21 10:45:39;;;;;;;15.63;10.88;;;;;;;7.20;95.35;97930.72;4980337;28;20060;-86
2022/12/21 10:48:05;;;;;;;21.15;11.75;;;;;;;7.18;94.75;97921.44;4997253;28;20030;-87
2022/12/21 10:50:34;;;;;;;15.85;10.32;;;;;;;7.16;95.36;97932.06;4995133;28;20052;-88
2022/12/21 10:53:24;;;;;;;20.73;11.70;;;;;;;7.17;95.01;97915.41;4995359;28;20097;-88
2022/12/21 10:55:54;;;;;;;19.23;11.02;;;;;;;7.33;94.62;97931.88;4995618;28;20033;-86
2022/12/21 10:58:31;;;;;;;20.20;11.40;;;;;;;7.22;95.38;97920.09;4993862;28;20043;-87
2022/12/21 11:01:28;;;;;;;16.95;11.18;;;;;;;7.29;95.33;97933.22;4992456;28;20093;-87
2022/12/21 11:04:33;;;;;;;17.98;10.95;;;;;;;7.28;95.43;97918.56;4990596;28;20041;-87
2022/12/21 11:07:39;;;;;;;15.00;9.93;;;;;;;7.38;95.53;97935.53;4997505;28;20029;-87
2022/12/21 11:10:28;;;;;;;16.10;10.38;;;;;;;7.39;95.60;97931.13;4912430;29;20035;-87
2022/12/21 11:12:54;;;;;;;19.52;11.32;;;;;;;7.43;94.67;97921.94;4922329;29;20115;-87
2022/12/21 11:15:24;;;;;;;15.68;10.70;;;;;;;7.44;94.97;97923.56;4970183;28;20129;-86
2022/12/21 11:17:49;;;;;;;14.23;10.10;;;;;;;7.46;94.89;97916.34;5008280;28;20038;-87
2022/12/21 11:20:22;;;;;;;15.30;9.93;;;;;;;7.33;95.31;97911.00;5001930;28;20121;-86
2022/12/21 11:22:54;;;;;;;17.20;10.30;;;;;;;7.46;95.37;97921.56;4989233;28;20041;-87
2022/12/21 11:25:31;;;;;;;16.33;10.48;;;;;;;7.54;95.45;97916.22;4962248;28;20034;-87
2022/12/21 11:28:01;;;;;;;16.88;10.18;;;;;;;7.65;95.05;97920.97;4993281;28;20455;-89
2022/12/21 11:30:33;;;;;;;17.15;11.05;;;;;;;7.65;94.92;97918.38;4987608;28;20033;-87
2022/12/21 11:33:00;;;;;;;16.77;10.10;;;;;;;7.58;94.67;97893.19;4975719;28;20053;-87
2022/12/21 11:35:29;;;;;;;16.92;11.18;;;;;;;7.51;94.61;97880.09;4980399;28;20038;-87
2022/12/21 11:38:16;;;;;;;16.42;11.00;;;;;;;7.74;94.83;97906.81;4996222;28;20109;-87
2022/12/21 11:40:59;;;;;;;15.63;10.25;;;;;;;7.75;94.76;97905.81;5002018;28;20038;-87
2022/12/21 11:43:25;;;;;;;16.25;11.02;;;;;;;7.77;94.37;97898.59;4956097;28;20121;-86
2022/12/21 11:46:22;;;;;;;16.00;10.23;;;;;;;8.01;94.16;97907.06;4964843;28;20126;-87
2022/12/21 11:49:24;;;;;;;15.85;10.73;;;;;;;8.10;93.04;97911.16;4954294;28;20530;-87
2022/12/21 11:52:50;;;;;;;14.98;10.07;;;;;;;8.08;92.95;97912.34;4975305;28;20038;-87
2022/12/21 11:55:57;;;;;;;16.92;10.10;;;;;;;8.16;92.99;97915.63;4887114;29;20481;-87
2022/12/21 11:58:22;;;;;;;20.40;11.05;;;;;;;8.15;93.05;97916.63;4986751;28;20070;-87
2022/12/21 12:01:08;;;;;;;15.63;10.45;;;;;;;8.11;93.00;97915.41;4980545;28;20654;-87
2022/12/21 12:03:56;;;;;;;15.45;10.77;;;;;;;8.03;92.85;97895.41;4977425;28;20038;-90
2022/12/21 12:07:01;;;;;;;14.52;10.07;;;;;;;8.10;92.64;97903.34;4984492;28;20031;-91